Addy, Washington
Current Conditions -  °F | °C
As of 12:53 AM on Saturday 20 Dec 2014 (Local Time) from KDEW Reporting Station
Overcast Overcast  
Wind Chill: 37°   Ceiling: 1500
Heat Index: 37°   Visibility: 10mi
Dew Point: 35°   Wind: 0mph
Humidity: 93%   Direction: NA
Pressure: 29.98"   Gusts: NA
Location:  48.36°N, 117.84°W
Report Text: KDEW 200853Z AUTO 00000KT 10SM OVC015 03/02 A2998 RMK AO2 SLP167 T00280017 55005
Loading
Personal Weather Stations






























Interactive Weather Map New forecast layout! Learn more

10-Day Weather Forecast

Advertisements
Track Severe Weather on mobile